sensor_id;sensor_type;location;lat;lon;timestamp;temperature;humidity
9450;DHT22;4763;48.370;10.874;2023-02-12T00:00:07;3.60;99.90
9450;DHT22;4763;48.370;10.874;2023-02-12T00:02:34;3.60;99.90
9450;DHT22;4763;48.370;10.874;2023-02-12T00:05:01;3.60;99.90
9450;DHT22;4763;48.370;10.874;2023-02-12T00:07:29;3.60;99.90
9450;DHT22;4763;48.370;10.874;2023-02-12T00:09:55;3.50;99.90
9450;DHT22;4763;48.370;10.874;2023-02-12T00:12:22;3.50;99.90
9450;DHT22;4763;48.370;10.874;2023-02-12T00:14:49;3.50;99.90
9450;DHT22;4763;48.370;10.874;2023-02-12T00:17:17;3.50;99.90
9450;DHT22;4763;48.370;10.874;2023-02-12T00:19:44;3.50;99.90
9450;DHT22;4763;48.370;10.874;2023-02-12T00:22:10;3.50;99.90
9450;DHT22;4763;48.370;10.874;2023-02-12T00:24:37;3.50;99.90
9450;DHT22;4763;48.370;10.874;2023-02-12T00:27:04;3.50;99.90
9450;DHT22;4763;48.370;10.874;2023-02-12T00:29:30;3.40;99.90
9450;DHT22;4763;48.370;10.874;2023-02-12T00:31:57;3.40;99.90
9450;DHT22;4763;48.370;10.874;2023-02-12T00:34:25;3.40;99.90
9450;DHT22;4763;48.370;10.874;2023-02-12T00:36:54;3.40;99.90
9450;DHT22;4763;48.370;10.874;2023-02-12T00:39:21;3.40;99.90
9450;DHT22;4763;48.370;10.874;2023-02-12T00:41:48;3.40;99.90
9450;DHT22;4763;48.370;10.874;2023-02-12T00:44:14;3.40;99.90
9450;DHT22;4763;48.370;10.874;2023-02-12T00:46:41;3.40;99.90
9450;DHT22;4763;48.370;10.874;2023-02-12T00:49:08;3.40;99.90
9450;DHT22;4763;48.370;10.874;2023-02-12T00:51:36;3.40;99.90
9450;DHT22;4763;48.370;10.874;2023-02-12T00:54:03;3.40;99.90
9450;DHT22;4763;48.370;10.874;2023-02-12T00:56:30;3.30;99.90
9450;DHT22;4763;48.370;10.874;2023-02-12T00:58:57;3.30;99.90
9450;DHT22;4763;48.370;10.874;2023-02-12T01:01:24;3.40;99.90
9450;DHT22;4763;48.370;10.874;2023-02-12T01:03:51;3.30;99.90
9450;DHT22;4763;48.370;10.874;2023-02-12T01:06:18;3.30;99.90
9450;DHT22;4763;48.370;10.874;2023-02-12T01:08:49;3.30;99.90
9450;DHT22;4763;48.370;10.874;2023-02-12T01:11:16;3.30;99.90
9450;DHT22;4763;48.370;10.874;2023-02-12T01:13:43;3.40;99.90
9450;DHT22;4763;48.370;10.874;2023-02-12T01:16:15;3.40;99.90
9450;DHT22;4763;48.370;10.874;2023-02-12T01:18:42;3.40;99.90
9450;DHT22;4763;48.370;10.874;2023-02-12T01:21:10;3.40;99.90
9450;DHT22;4763;48.370;10.874;2023-02-12T01:23:38;3.40;99.90
9450;DHT22;4763;48.370;10.874;2023-02-12T01:26:13;3.50;99.90
9450;DHT22;4763;48.370;10.874;2023-02-12T01:28:42;3.40;99.90
9450;DHT22;4763;48.370;10.874;2023-02-12T01:31:10;3.40;99.90
9450;DHT22;4763;48.370;10.874;2023-02-12T01:33:37;3.40;99.90
9450;DHT22;4763;48.370;10.874;2023-02-12T01:36:05;3.50;99.90
9450;DHT22;4763;48.370;10.874;2023-02-12T01:38:32;3.40;99.90
9450;DHT22;4763;48.370;10.874;2023-02-12T01:41:03;3.40;99.90
9450;DHT22;4763;48.370;10.874;2023-02-12T01:43:32;3.40;99.90
9450;DHT22;4763;48.370;10.874;2023-02-12T01:45:59;3.30;99.90
9450;DHT22;4763;48.370;10.874;2023-02-12T01:48:28;3.40;99.90
9450;DHT22;4763;48.370;10.874;2023-02-12T01:51:01;3.40;99.90
9450;DHT22;4763;48.370;10.874;2023-02-12T01:53:32;3.30;99.90
9450;DHT22;4763;48.370;10.874;2023-02-12T01:56:01;3.30;99.90
9450;DHT22;4763;48.370;10.874;2023-02-12T01:58:33;3.30;99.90
9450;DHT22;4763;48.370;10.874;2023-02-12T02:01:01;3.30;99.90
9450;DHT22;4763;48.370;10.874;2023-02-12T02:03:28;3.30;99.90
9450;DHT22;4763;48.370;10.874;2023-02-12T02:05:59;3.30;99.90
9450;DHT22;4763;48.370;10.874;2023-02-12T02:08:27;3.30;99.90
9450;DHT22;4763;48.370;10.874;2023-02-12T02:10:54;3.20;99.90
9450;DHT22;4763;48.370;10.874;2023-02-12T02:13:21;3.10;99.90
9450;DHT22;4763;48.370;10.874;2023-02-12T02:16:14;3.20;99.90
9450;DHT22;4763;48.370;10.874;2023-02-12T02:18:48;3.20;99.90
9450;DHT22;4763;48.370;10.874;2023-02-12T02:21:34;3.20;99.90
9450;DHT22;4763;48.370;10.874;2023-02-12T02:24:36;3.20;99.90
9450;DHT22;4763;48.370;10.874;2023-02-12T02:27:26;3.20;99.90
9450;DHT22;4763;48.370;10.874;2023-02-12T02:30:23;3.20;99.90
9450;DHT22;4763;48.370;10.874;2023-02-12T02:32:58;3.30;99.90
9450;DHT22;4763;48.370;10.874;2023-02-12T02:35:35;3.40;99.90
9450;DHT22;4763;48.370;10.874;2023-02-12T02:38:09;3.40;99.90
9450;DHT22;4763;48.370;10.874;2023-02-12T02:40:48;3.40;99.90
9450;DHT22;4763;48.370;10.874;2023-02-12T02:43:18;3.40;99.90
9450;DHT22;4763;48.370;10.874;2023-02-12T02:45:50;3.30;99.90
9450;DHT22;4763;48.370;10.874;2023-02-12T02:48:20;3.40;99.90
9450;DHT22;4763;48.370;10.874;2023-02-12T02:50:52;3.40;99.90
9450;DHT22;4763;48.370;10.874;2023-02-12T02:53:24;3.40;99.90
9450;DHT22;4763;48.370;10.874;2023-02-12T02:55:54;3.30;99.90
9450;DHT22;4763;48.370;10.874;2023-02-12T02:58:24;3.30;99.90
9450;DHT22;4763;48.370;10.874;2023-02-12T03:00:57;3.30;99.90
9450;DHT22;4763;48.370;10.874;2023-02-12T03:03:29;3.40;99.90
9450;DHT22;4763;48.370;10.874;2023-02-12T03:06:00;3.40;99.90
9450;DHT22;4763;48.370;10.874;2023-02-12T03:08:31;3.40;99.90
9450;DHT22;4763;48.370;10.874;2023-02-12T03:11:02;3.30;99.90
9450;DHT22;4763;48.370;10.874;2023-02-12T03:13:33;3.30;99.90
9450;DHT22;4763;48.370;10.874;2023-02-12T03:16:07;3.30;99.90
9450;DHT22;4763;48.370;10.874;2023-02-12T03:18:40;3.30;99.90
9450;DHT22;4763;48.370;10.874;2023-02-12T03:21:11;3.30;99.90
9450;DHT22;4763;48.370;10.874;2023-02-12T03:23:41;3.30;99.90
9450;DHT22;4763;48.370;10.874;2023-02-12T03:26:13;3.20;99.90
9450;DHT22;4763;48.370;10.874;2023-02-12T03:28:45;3.20;99.90
9450;DHT22;4763;48.370;10.874;2023-02-12T03:31:19;3.20;99.90
9450;DHT22;4763;48.370;10.874;2023-02-12T03:33:57;3.20;99.90
9450;DHT22;4763;48.370;10.874;2023-02-12T03:36:34;3.30;99.90
9450;DHT22;4763;48.370;10.874;2023-02-12T03:39:07;3.30;99.90
9450;DHT22;4763;48.370;10.874;2023-02-12T03:41:41;3.30;99.90
9450;DHT22;4763;48.370;10.874;2023-02-12T03:44:17;3.20;99.90
9450;DHT22;4763;48.370;10.874;2023-02-12T03:46:55;3.30;99.90
9450;DHT22;4763;48.370;10.874;2023-02-12T03:49:26;3.30;99.90
9450;DHT22;4763;48.370;10.874;2023-02-12T03:51:54;3.20;99.90
9450;DHT22;4763;48.370;10.874;2023-02-12T03:54:21;3.20;99.90
9450;DHT22;4763;48.370;10.874;2023-02-12T03:56:51;3.20;99.90
9450;DHT22;4763;48.370;10.874;2023-02-12T03:59:20;3.20;99.90
9450;DHT22;4763;48.370;10.874;2023-02-12T04:01:51;3.20;99.90
9450;DHT22;4763;48.370;10.874;2023-02-12T04:04:19;3.20;99.90
9450;DHT22;4763;48.370;10.874;2023-02-12T04:06:48;3.20;99.90
9450;DHT22;4763;48.370;10.874;2023-02-12T04:09:16;3.20;99.90
9450;DHT22;4763;48.370;10.874;2023-02-12T04:11:54;3.20;99.90
9450;DHT22;4763;48.370;10.874;2023-02-12T04:14:28;3.30;99.90
9450;DHT22;4763;48.370;10.874;2023-02-12T04:17:02;3.30;99.90
9450;DHT22;4763;48.370;10.874;2023-02-12T04:19:36;3.30;99.90
9450;DHT22;4763;48.370;10.874;2023-02-12T04:22:17;3.30;99.90
9450;DHT22;4763;48.370;10.874;2023-02-12T04:24:51;3.30;99.90
9450;DHT22;4763;48.370;10.874;2023-02-12T04:27:23;3.30;99.90
9450;DHT22;4763;48.370;10.874;2023-02-12T04:29:56;3.30;99.90
9450;DHT22;4763;48.370;10.874;2023-02-12T04:32:31;3.20;99.90
9450;DHT22;4763;48.370;10.874;2023-02-12T04:35:04;3.20;99.90
9450;DHT22;4763;48.370;10.874;2023-02-12T04:37:35;3.20;99.90
9450;DHT22;4763;48.370;10.874;2023-02-12T04:40:07;3.20;99.90
9450;DHT22;4763;48.370;10.874;2023-02-12T04:42:40;3.20;99.90
9450;DHT22;4763;48.370;10.874;2023-02-12T04:45:09;3.20;99.90
9450;DHT22;4763;48.370;10.874;2023-02-12T04:47:37;3.10;99.90
9450;DHT22;4763;48.370;10.874;2023-02-12T04:50:05;3.10;99.90
9450;DHT22;4763;48.370;10.874;2023-02-12T04:52:32;3.10;99.90
9450;DHT22;4763;48.370;10.874;2023-02-12T04:54:58;3.00;99.90
9450;DHT22;4763;48.370;10.874;2023-02-12T04:57:25;3.10;99.90
9450;DHT22;4763;48.370;10.874;2023-02-12T04:59:52;3.10;99.90
9450;DHT22;4763;48.370;10.874;2023-02-12T05:02:19;3.10;99.90
9450;DHT22;4763;48.370;10.874;2023-02-12T05:04:48;3.10;99.90
9450;DHT22;4763;48.370;10.874;2023-02-12T05:07:14;3.10;99.90
9450;DHT22;4763;48.370;10.874;2023-02-12T05:09:41;3.10;99.90
9450;DHT22;4763;48.370;10.874;2023-02-12T05:12:08;3.10;99.90
9450;DHT22;4763;48.370;10.874;2023-02-12T05:14:35;3.10;99.90
9450;DHT22;4763;48.370;10.874;2023-02-12T05:17:01;3.10;99.90
9450;DHT22;4763;48.370;10.874;2023-02-12T05:19:28;3.10;99.90
9450;DHT22;4763;48.370;10.874;2023-02-12T05:21:56;3.10;99.90
9450;DHT22;4763;48.370;10.874;2023-02-12T05:24:23;3.10;99.90
9450;DHT22;4763;48.370;10.874;2023-02-12T05:26:50;3.10;99.90
9450;DHT22;4763;48.370;10.874;2023-02-12T05:29:17;3.10;99.90
9450;DHT22;4763;48.370;10.874;2023-02-12T05:31:44;3.10;99.90
9450;DHT22;4763;48.370;10.874;2023-02-12T05:34:11;3.10;99.90
9450;DHT22;4763;48.370;10.874;2023-02-12T05:36:39;3.10;99.90
9450;DHT22;4763;48.370;10.874;2023-02-12T05:39:07;3.10;99.90
9450;DHT22;4763;48.370;10.874;2023-02-12T05:41:34;3.10;99.90
9450;DHT22;4763;48.370;10.874;2023-02-12T05:44:01;3.00;99.90
9450;DHT22;4763;48.370;10.874;2023-02-12T05:46:28;3.00;99.90
9450;DHT22;4763;48.370;10.874;2023-02-12T05:48:54;3.00;99.90
9450;DHT22;4763;48.370;10.874;2023-02-12T05:51:22;3.00;99.90
9450;DHT22;4763;48.370;10.874;2023-02-12T05:53:51;3.00;99.90
9450;DHT22;4763;48.370;10.874;2023-02-12T05:56:21;3.00;99.90
9450;DHT22;4763;48.370;10.874;2023-02-12T05:58:54;3.00;99.90
9450;DHT22;4763;48.370;10.874;2023-02-12T06:01:22;2.90;99.90
9450;DHT22;4763;48.370;10.874;2023-02-12T06:03:49;2.90;99.90
9450;DHT22;4763;48.370;10.874;2023-02-12T06:06:16;2.90;99.90
9450;DHT22;4763;48.370;10.874;2023-02-12T06:08:46;2.90;99.90
9450;DHT22;4763;48.370;10.874;2023-02-12T06:11:14;2.90;99.90
9450;DHT22;4763;48.370;10.874;2023-02-12T06:13:43;2.90;99.90
9450;DHT22;4763;48.370;10.874;2023-02-12T06:16:17;2.90;99.90
9450;DHT22;4763;48.370;10.874;2023-02-12T06:18:44;2.90;99.90
9450;DHT22;4763;48.370;10.874;2023-02-12T06:21:10;2.90;99.90
9450;DHT22;4763;48.370;10.874;2023-02-12T06:23:38;2.90;99.90
9450;DHT22;4763;48.370;10.874;2023-02-12T06:26:05;2.90;99.90
9450;DHT22;4763;48.370;10.874;2023-02-12T06:28:32;2.90;99.90
9450;DHT22;4763;48.370;10.874;2023-02-12T06:31:00;3.00;99.90
9450;DHT22;4763;48.370;10.874;2023-02-12T06:33:26;3.00;99.90
9450;DHT22;4763;48.370;10.874;2023-02-12T06:35:53;3.00;99.90
9450;DHT22;4763;48.370;10.874;2023-02-12T06:38:20;3.00;99.90
9450;DHT22;4763;48.370;10.874;2023-02-12T06:40:47;3.00;99.90
9450;DHT22;4763;48.370;10.874;2023-02-12T06:43:14;3.00;99.90
9450;DHT22;4763;48.370;10.874;2023-02-12T06:45:40;3.00;99.90
9450;DHT22;4763;48.370;10.874;2023-02-12T06:48:08;3.00;99.90
9450;DHT22;4763;48.370;10.874;2023-02-12T06:50:35;3.00;99.90
9450;DHT22;4763;48.370;10.874;2023-02-12T06:53:02;3.00;99.90
9450;DHT22;4763;48.370;10.874;2023-02-12T06:55:29;3.10;99.90
9450;DHT22;4763;48.370;10.874;2023-02-12T06:57:55;3.10;99.90
9450;DHT22;4763;48.370;10.874;2023-02-12T07:00:22;3.10;99.90
9450;DHT22;4763;48.370;10.874;2023-02-12T07:02:53;3.10;99.90
9450;DHT22;4763;48.370;10.874;2023-02-12T07:05:22;3.10;99.90
9450;DHT22;4763;48.370;10.874;2023-02-12T07:07:49;3.20;99.90
9450;DHT22;4763;48.370;10.874;2023-02-12T07:10:16;3.20;99.90
9450;DHT22;4763;48.370;10.874;2023-02-12T07:12:54;3.20;99.90
9450;DHT22;4763;48.370;10.874;2023-02-12T07:15:20;3.20;99.90
9450;DHT22;4763;48.370;10.874;2023-02-12T07:17:47;3.20;99.90
9450;DHT22;4763;48.370;10.874;2023-02-12T07:20:14;3.30;99.90
9450;DHT22;4763;48.370;10.874;2023-02-12T07:22:42;3.30;99.90
9450;DHT22;4763;48.370;10.874;2023-02-12T07:25:09;3.30;99.90
9450;DHT22;4763;48.370;10.874;2023-02-12T07:27:36;3.40;99.90
9450;DHT22;4763;48.370;10.874;2023-02-12T07:30:04;3.40;99.90
9450;DHT22;4763;48.370;10.874;2023-02-12T07:32:31;3.40;99.90
9450;DHT22;4763;48.370;10.874;2023-02-12T07:34:58;3.50;99.90
9450;DHT22;4763;48.370;10.874;2023-02-12T07:37:25;3.50;99.90
9450;DHT22;4763;48.370;10.874;2023-02-12T07:39:53;3.50;99.90
9450;DHT22;4763;48.370;10.874;2023-02-12T07:42:19;3.60;99.90
9450;DHT22;4763;48.370;10.874;2023-02-12T07:44:47;3.70;99.90
9450;DHT22;4763;48.370;10.874;2023-02-12T07:47:14;3.70;99.90
9450;DHT22;4763;48.370;10.874;2023-02-12T07:49:41;3.80;99.90
9450;DHT22;4763;48.370;10.874;2023-02-12T07:52:08;3.80;99.90
9450;DHT22;4763;48.370;10.874;2023-02-12T07:54:35;3.90;99.90
9450;DHT22;4763;48.370;10.874;2023-02-12T07:57:03;3.90;99.90
9450;DHT22;4763;48.370;10.874;2023-02-12T07:59:30;3.90;99.90
9450;DHT22;4763;48.370;10.874;2023-02-12T08:01:56;3.80;99.90
9450;DHT22;4763;48.370;10.874;2023-02-12T08:04:25;3.80;99.90
9450;DHT22;4763;48.370;10.874;2023-02-12T08:06:53;3.90;99.90
9450;DHT22;4763;48.370;10.874;2023-02-12T08:09:22;3.80;99.90
9450;DHT22;4763;48.370;10.874;2023-02-12T08:11:49;3.90;99.90
9450;DHT22;4763;48.370;10.874;2023-02-12T08:14:20;3.90;99.90
9450;DHT22;4763;48.370;10.874;2023-02-12T08:16:48;3.90;99.90
9450;DHT22;4763;48.370;10.874;2023-02-12T08:19:15;3.90;99.90
9450;DHT22;4763;48.370;10.874;2023-02-12T08:21:42;3.90;99.90
9450;DHT22;4763;48.370;10.874;2023-02-12T08:24:09;4.00;99.90
9450;DHT22;4763;48.370;10.874;2023-02-12T08:26:37;4.00;99.90
9450;DHT22;4763;48.370;10.874;2023-02-12T08:29:06;4.00;99.90
9450;DHT22;4763;48.370;10.874;2023-02-12T08:31:36;4.10;99.90
9450;DHT22;4763;48.370;10.874;2023-02-12T08:34:03;4.10;99.90
9450;DHT22;4763;48.370;10.874;2023-02-12T08:36:34;4.20;99.90
9450;DHT22;4763;48.370;10.874;2023-02-12T08:39:01;4.20;99.90
9450;DHT22;4763;48.370;10.874;2023-02-12T08:41:29;4.20;99.90
9450;DHT22;4763;48.370;10.874;2023-02-12T08:43:57;4.20;99.90
9450;DHT22;4763;48.370;10.874;2023-02-12T08:46:26;4.20;99.90
9450;DHT22;4763;48.370;10.874;2023-02-12T08:48:57;4.30;99.90
9450;DHT22;4763;48.370;10.874;2023-02-12T08:51:25;4.30;99.90
9450;DHT22;4763;48.370;10.874;2023-02-12T08:53:54;4.40;99.90
9450;DHT22;4763;48.370;10.874;2023-02-12T08:56:22;4.40;99.90
9450;DHT22;4763;48.370;10.874;2023-02-12T08:58:49;4.40;99.90
9450;DHT22;4763;48.370;10.874;2023-02-12T09:01:19;4.50;99.90
9450;DHT22;4763;48.370;10.874;2023-02-12T09:03:48;4.50;99.90
9450;DHT22;4763;48.370;10.874;2023-02-12T09:06:17;4.50;99.90
9450;DHT22;4763;48.370;10.874;2023-02-12T09:08:45;4.60;99.90
9450;DHT22;4763;48.370;10.874;2023-02-12T09:11:14;4.70;99.90
9450;DHT22;4763;48.370;10.874;2023-02-12T09:13:45;4.70;99.90
9450;DHT22;4763;48.370;10.874;2023-02-12T09:16:13;4.70;99.90
9450;DHT22;4763;48.370;10.874;2023-02-12T09:18:40;4.80;99.90
9450;DHT22;4763;48.370;10.874;2023-02-12T09:21:09;4.80;99.90
9450;DHT22;4763;48.370;10.874;2023-02-12T09:23:37;4.90;99.90
9450;DHT22;4763;48.370;10.874;2023-02-12T09:26:05;5.00;99.90
9450;DHT22;4763;48.370;10.874;2023-02-12T09:28:32;5.00;99.90
9450;DHT22;4763;48.370;10.874;2023-02-12T09:31:04;5.10;99.90
9450;DHT22;4763;48.370;10.874;2023-02-12T09:33:31;5.10;99.90
9450;DHT22;4763;48.370;10.874;2023-02-12T09:36:00;5.20;99.90
9450;DHT22;4763;48.370;10.874;2023-02-12T09:38:28;5.30;99.90
9450;DHT22;4763;48.370;10.874;2023-02-12T09:41:13;5.30;99.90
9450;DHT22;4763;48.370;10.874;2023-02-12T09:43:48;5.30;99.90
9450;DHT22;4763;48.370;10.874;2023-02-12T09:46:21;5.40;99.90
9450;DHT22;4763;48.370;10.874;2023-02-12T09:48:58;5.50;99.90
9450;DHT22;4763;48.370;10.874;2023-02-12T09:51:27;5.70;99.90
9450;DHT22;4763;48.370;10.874;2023-02-12T09:54:02;5.70;99.90
9450;DHT22;4763;48.370;10.874;2023-02-12T09:56:33;5.70;99.90
9450;DHT22;4763;48.370;10.874;2023-02-12T09:59:03;5.70;99.90
9450;DHT22;4763;48.370;10.874;2023-02-12T10:01:31;5.80;99.90
9450;DHT22;4763;48.370;10.874;2023-02-12T10:03:58;5.80;99.90
9450;DHT22;4763;48.370;10.874;2023-02-12T10:06:27;5.80;99.90
9450;DHT22;4763;48.370;10.874;2023-02-12T10:09:09;5.80;99.90
9450;DHT22;4763;48.370;10.874;2023-02-12T10:11:52;5.90;99.90
9450;DHT22;4763;48.370;10.874;2023-02-12T10:14:39;6.00;99.90
9450;DHT22;4763;48.370;10.874;2023-02-12T10:17:15;6.10;99.90
9450;DHT22;4763;48.370;10.874;2023-02-12T10:20:11;6.10;99.90
9450;DHT22;4763;48.370;10.874;2023-02-12T10:22:46;6.20;99.90
9450;DHT22;4763;48.370;10.874;2023-02-12T10:25:23;6.20;99.90
9450;DHT22;4763;48.370;10.874;2023-02-12T10:27:54;6.20;99.90
9450;DHT22;4763;48.370;10.874;2023-02-12T10:30:24;6.30;99.90
9450;DHT22;4763;48.370;10.874;2023-02-12T10:32:55;6.30;99.90
9450;DHT22;4763;48.370;10.874;2023-02-12T10:35:24;6.40;99.90
9450;DHT22;4763;48.370;10.874;2023-02-12T10:37:56;6.30;99.90
9450;DHT22;4763;48.370;10.874;2023-02-12T10:40:27;6.40;99.90
9450;DHT22;4763;48.370;10.874;2023-02-12T10:42:56;6.40;99.90
9450;DHT22;4763;48.370;10.874;2023-02-12T10:45:26;6.60;99.90
9450;DHT22;4763;48.370;10.874;2023-02-12T10:48:06;6.50;99.90
9450;DHT22;4763;48.370;10.874;2023-02-12T10:50:48;6.60;99.90
9450;DHT22;4763;48.370;10.874;2023-02-12T10:53:19;6.50;99.90
9450;DHT22;4763;48.370;10.874;2023-02-12T10:55:47;6.50;99.90
9450;DHT22;4763;48.370;10.874;2023-02-12T10:58:21;6.50;99.90
9450;DHT22;4763;48.370;10.874;2023-02-12T11:00:56;6.60;99.90
9450;DHT22;4763;48.370;10.874;2023-02-12T11:03:26;6.60;99.90
9450;DHT22;4763;48.370;10.874;2023-02-12T11:05:53;6.50;99.90
9450;DHT22;4763;48.370;10.874;2023-02-12T11:08:32;6.40;99.90
9450;DHT22;4763;48.370;10.874;2023-02-12T11:11:09;6.40;99.90
9450;DHT22;4763;48.370;10.874;2023-02-12T11:13:39;6.40;99.90
9450;DHT22;4763;48.370;10.874;2023-02-12T11:16:07;6.40;99.90
9450;DHT22;4763;48.370;10.874;2023-02-12T11:18:34;6.40;99.90
9450;DHT22;4763;48.370;10.874;2023-02-12T11:21:04;6.50;99.90
9450;DHT22;4763;48.370;10.874;2023-02-12T11:23:32;6.50;99.90
9450;DHT22;4763;48.370;10.874;2023-02-12T11:26:02;6.50;99.90
9450;DHT22;4763;48.370;10.874;2023-02-12T11:28:29;6.50;99.90
9450;DHT22;4763;48.370;10.874;2023-02-12T11:30:59;6.60;99.90
9450;DHT22;4763;48.370;10.874;2023-02-12T11:33:30;6.60;99.90
9450;DHT22;4763;48.370;10.874;2023-02-12T11:36:01;6.60;99.90
9450;DHT22;4763;48.370;10.874;2023-02-12T11:38:34;6.60;99.90
9450;DHT22;4763;48.370;10.874;2023-02-12T11:41:06;6.50;99.90
9450;DHT22;4763;48.370;10.874;2023-02-12T11:43:35;6.50;99.90
9450;DHT22;4763;48.370;10.874;2023-02-12T11:46:06;6.60;99.90
9450;DHT22;4763;48.370;10.874;2023-02-12T11:48:36;6.50;99.90
9450;DHT22;4763;48.370;10.874;2023-02-12T11:51:06;6.60;99.90
9450;DHT22;4763;48.370;10.874;2023-02-12T11:53:36;6.70;99.90
9450;DHT22;4763;48.370;10.874;2023-02-12T11:56:06;6.80;99.90
9450;DHT22;4763;48.370;10.874;2023-02-12T11:58:34;6.90;99.90
9450;DHT22;4763;48.370;10.874;2023-02-12T12:01:07;7.10;99.90
9450;DHT22;4763;48.370;10.874;2023-02-12T12:03:41;7.20;99.90
9450;DHT22;4763;48.370;10.874;2023-02-12T12:06:20;7.30;99.90
9450;DHT22;4763;48.370;10.874;2023-02-12T12:08:50;7.30;99.90
9450;DHT22;4763;48.370;10.874;2023-02-12T12:11:22;7.50;99.90
9450;DHT22;4763;48.370;10.874;2023-02-12T12:13:55;7.60;99.90
9450;DHT22;4763;48.370;10.874;2023-02-12T12:16:30;7.60;99.90
9450;DHT22;4763;48.370;10.874;2023-02-12T12:19:20;7.70;99.90
9450;DHT22;4763;48.370;10.874;2023-02-12T12:22:21;7.80;99.90
9450;DHT22;4763;48.370;10.874;2023-02-12T12:24:52;7.90;99.90
9450;DHT22;4763;48.370;10.874;2023-02-12T12:27:26;7.90;99.90
9450;DHT22;4763;48.370;10.874;2023-02-12T12:30:19;8.00;99.90
9450;DHT22;4763;48.370;10.874;2023-02-12T12:32:52;7.90;99.90
9450;DHT22;4763;48.370;10.874;2023-02-12T12:35:26;7.70;99.90
9450;DHT22;4763;48.370;10.874;2023-02-12T12:38:01;7.70;99.90
9450;DHT22;4763;48.370;10.874;2023-02-12T12:40:41;7.80;99.90
9450;DHT22;4763;48.370;10.874;2023-02-12T12:43:14;8.00;99.90
9450;DHT22;4763;48.370;10.874;2023-02-12T12:46:30;8.00;99.90
9450;DHT22;4763;48.370;10.874;2023-02-12T12:49:51;8.10;99.90
9450;DHT22;4763;48.370;10.874;2023-02-12T12:52:44;8.40;99.90
9450;DHT22;4763;48.370;10.874;2023-02-12T12:55:43;8.50;99.90
9450;DHT22;4763;48.370;10.874;2023-02-12T12:58:20;8.40;99.90
9450;DHT22;4763;48.370;10.874;2023-02-12T13:01:00;8.40;99.90
9450;DHT22;4763;48.370;10.874;2023-02-12T13:06:53;8.30;99.90
9450;DHT22;4763;48.370;10.874;2023-02-12T13:09:44;8.40;99.90
9450;DHT22;4763;48.370;10.874;2023-02-12T13:12:43;8.60;99.90
9450;DHT22;4763;48.370;10.874;2023-02-12T13:15:20;9.00;99.90
9450;DHT22;4763;48.370;10.874;2023-02-12T13:17:56;8.90;99.90
9450;DHT22;4763;48.370;10.874;2023-02-12T13:20:36;8.80;99.90
9450;DHT22;4763;48.370;10.874;2023-02-12T13:23:12;8.70;99.90
9450;DHT22;4763;48.370;10.874;2023-02-12T13:25:46;8.70;99.90
9450;DHT22;4763;48.370;10.874;2023-02-12T13:28:23;8.80;99.90
9450;DHT22;4763;48.370;10.874;2023-02-12T13:30:54;8.80;99.90
9450;DHT22;4763;48.370;10.874;2023-02-12T13:33:23;8.80;99.90
9450;DHT22;4763;48.370;10.874;2023-02-12T13:35:53;8.70;99.90
9450;DHT22;4763;48.370;10.874;2023-02-12T13:38:27;8.50;99.90
9450;DHT22;4763;48.370;10.874;2023-02-12T13:41:03;8.50;99.90
9450;DHT22;4763;48.370;10.874;2023-02-12T13:43:38;8.70;99.90
9450;DHT22;4763;48.370;10.874;2023-02-12T13:46:13;8.90;99.90
9450;DHT22;4763;48.370;10.874;2023-02-12T13:48:48;9.30;99.90
9450;DHT22;4763;48.370;10.874;2023-02-12T13:51:27;9.70;99.90
9450;DHT22;4763;48.370;10.874;2023-02-12T13:54:11;10.20;99.90
9450;DHT22;4763;48.370;10.874;2023-02-12T13:56:41;10.30;99.90
9450;DHT22;4763;48.370;10.874;2023-02-12T13:59:40;10.40;99.90
9450;DHT22;4763;48.370;10.874;2023-02-12T14:05:31;10.20;99.90
9450;DHT22;4763;48.370;10.874;2023-02-12T14:08:01;10.30;99.90
9450;DHT22;4763;48.370;10.874;2023-02-12T14:10:34;10.60;99.90
9450;DHT22;4763;48.370;10.874;2023-02-12T14:13:19;10.80;99.90
9450;DHT22;4763;48.370;10.874;2023-02-12T14:15:49;10.80;99.90
9450;DHT22;4763;48.370;10.874;2023-02-12T14:18:24;10.70;99.90
9450;DHT22;4763;48.370;10.874;2023-02-12T14:24:48;10.20;99.90
9450;DHT22;4763;48.370;10.874;2023-02-12T14:27:39;10.30;99.90
9450;DHT22;4763;48.370;10.874;2023-02-12T14:30:29;10.40;99.90
9450;DHT22;4763;48.370;10.874;2023-02-12T14:33:19;10.10;99.90
9450;DHT22;4763;48.370;10.874;2023-02-12T14:35:48;10.00;99.90
9450;DHT22;4763;48.370;10.874;2023-02-12T14:41:46;10.00;99.90
9450;DHT22;4763;48.370;10.874;2023-02-12T14:44:42;10.00;99.90
9450;DHT22;4763;48.370;10.874;2023-02-12T14:47:48;10.00;99.90
9450;DHT22;4763;48.370;10.874;2023-02-12T14:50:41;10.10;99.90
9450;DHT22;4763;48.370;10.874;2023-02-12T14:53:36;10.00;99.90
9450;DHT22;4763;48.370;10.874;2023-02-12T14:56:25;10.00;99.90
9450;DHT22;4763;48.370;10.874;2023-02-12T14:59:15;10.00;99.90
9450;DHT22;4763;48.370;10.874;2023-02-12T15:02:07;9.80;99.90
9450;DHT22;4763;48.370;10.874;2023-02-12T15:05:00;9.40;99.90
9450;DHT22;4763;48.370;10.874;2023-02-12T15:07:51;9.20;99.90
9450;DHT22;4763;48.370;10.874;2023-02-12T15:10:46;9.20;99.90
9450;DHT22;4763;48.370;10.874;2023-02-12T15:13:43;9.10;99.90
9450;DHT22;4763;48.370;10.874;2023-02-12T15:16:40;8.90;99.90
9450;DHT22;4763;48.370;10.874;2023-02-12T15:19:38;8.70;99.90
9450;DHT22;4763;48.370;10.874;2023-02-12T15:22:29;8.60;99.90
9450;DHT22;4763;48.370;10.874;2023-02-12T15:25:22;8.40;99.90
9450;DHT22;4763;48.370;10.874;2023-02-12T15:28:18;8.20;99.90
9450;DHT22;4763;48.370;10.874;2023-02-12T15:31:07;8.10;99.90
9450;DHT22;4763;48.370;10.874;2023-02-12T15:33:57;8.00;99.90
9450;DHT22;4763;48.370;10.874;2023-02-12T15:36:46;7.80;99.90
9450;DHT22;4763;48.370;10.874;2023-02-12T15:39:38;7.80;99.90
9450;DHT22;4763;48.370;10.874;2023-02-12T15:42:30;7.60;99.90
9450;DHT22;4763;48.370;10.874;2023-02-12T15:45:20;7.50;99.90
9450;DHT22;4763;48.370;10.874;2023-02-12T15:48:11;7.40;99.90
9450;DHT22;4763;48.370;10.874;2023-02-12T15:51:04;7.40;99.90
9450;DHT22;4763;48.370;10.874;2023-02-12T15:53:55;7.30;99.90
9450;DHT22;4763;48.370;10.874;2023-02-12T15:56:44;7.20;99.90
9450;DHT22;4763;48.370;10.874;2023-02-12T15:59:31;7.10;99.90
9450;DHT22;4763;48.370;10.874;2023-02-12T16:02:21;7.00;99.90
9450;DHT22;4763;48.370;10.874;2023-02-12T16:05:14;7.00;99.90
9450;DHT22;4763;48.370;10.874;2023-02-12T16:08:02;6.90;99.90
9450;DHT22;4763;48.370;10.874;2023-02-12T16:10:52;6.90;99.90
9450;DHT22;4763;48.370;10.874;2023-02-12T16:13:44;6.80;99.90
9450;DHT22;4763;48.370;10.874;2023-02-12T16:16:40;6.70;99.90
9450;DHT22;4763;48.370;10.874;2023-02-12T16:19:30;6.60;99.90
9450;DHT22;4763;48.370;10.874;2023-02-12T16:22:18;6.40;99.90
9450;DHT22;4763;48.370;10.874;2023-02-12T16:25:14;6.40;99.90
9450;DHT22;4763;48.370;10.874;2023-02-12T16:28:04;6.30;99.90
9450;DHT22;4763;48.370;10.874;2023-02-12T16:30:52;6.20;99.90
9450;DHT22;4763;48.370;10.874;2023-02-12T16:33:44;6.10;99.90
9450;DHT22;4763;48.370;10.874;2023-02-12T16:36:33;6.00;99.90
9450;DHT22;4763;48.370;10.874;2023-02-12T16:42:56;5.80;99.90
9450;DHT22;4763;48.370;10.874;2023-02-12T16:45:46;5.60;99.90
9450;DHT22;4763;48.370;10.874;2023-02-12T16:48:39;5.60;99.90
9450;DHT22;4763;48.370;10.874;2023-02-12T16:51:30;5.50;99.90
9450;DHT22;4763;48.370;10.874;2023-02-12T16:54:26;5.40;99.90
9450;DHT22;4763;48.370;10.874;2023-02-12T16:57:14;5.30;99.90
9450;DHT22;4763;48.370;10.874;2023-02-12T17:00:02;5.30;99.90